sensor_id;sensor_type;location;lat;lon;timestamp;P1;durP1;ratioP1;P2;durP2;ratioP2
12024;SDS011;6073;53.230;10.444;2023-04-09T00:01:07;25.17;;;15.25;;
12024;SDS011;6073;53.230;10.444;2023-04-09T00:03:34;24.52;;;15.98;;
12024;SDS011;6073;53.230;10.444;2023-04-09T00:06:01;24.30;;;15.13;;
12024;SDS011;6073;53.230;10.444;2023-04-09T00:08:27;26.30;;;15.85;;
12024;SDS011;6073;53.230;10.444;2023-04-09T00:10:53;23.77;;;15.40;;
12024;SDS011;6073;53.230;10.444;2023-04-09T00:13:19;21.88;;;14.00;;
12024;SDS011;6073;53.230;10.444;2023-04-09T00:15:45;24.80;;;15.93;;
12024;SDS011;6073;53.230;10.444;2023-04-09T00:18:11;23.85;;;15.75;;
12024;SDS011;6073;53.230;10.444;2023-04-09T00:20:37;27.85;;;16.17;;
12024;SDS011;6073;53.230;10.444;2023-04-09T00:23:03;24.58;;;15.70;;
12024;SDS011;6073;53.230;10.444;2023-04-09T00:25:28;22.65;;;14.52;;
12024;SDS011;6073;53.230;10.444;2023-04-09T00:27:54;23.13;;;14.30;;
12024;SDS011;6073;53.230;10.444;2023-04-09T00:30:20;22.05;;;14.60;;
12024;SDS011;6073;53.230;10.444;2023-04-09T00:32:46;21.38;;;14.48;;
12024;SDS011;6073;53.230;10.444;2023-04-09T00:35:12;24.38;;;13.85;;
12024;SDS011;6073;53.230;10.444;2023-04-09T00:37:38;20.95;;;14.23;;
12024;SDS011;6073;53.230;10.444;2023-04-09T00:40:03;25.98;;;15.60;;
12024;SDS011;6073;53.230;10.444;2023-04-09T00:42:30;22.90;;;14.50;;
12024;SDS011;6073;53.230;10.444;2023-04-09T00:45:00;22.02;;;14.13;;
12024;SDS011;6073;53.230;10.444;2023-04-09T00:47:26;21.55;;;13.15;;
12024;SDS011;6073;53.230;10.444;2023-04-09T00:49:53;20.63;;;13.77;;
12024;SDS011;6073;53.230;10.444;2023-04-09T00:52:19;23.48;;;14.23;;
12024;SDS011;6073;53.230;10.444;2023-04-09T00:54:46;21.33;;;13.82;;
12024;SDS011;6073;53.230;10.444;2023-04-09T00:57:13;22.10;;;14.27;;
12024;SDS011;6073;53.230;10.444;2023-04-09T00:59:39;22.55;;;13.82;;
12024;SDS011;6073;53.230;10.444;2023-04-09T01:02:05;20.70;;;12.90;;
12024;SDS011;6073;53.230;10.444;2023-04-09T01:04:30;21.98;;;13.57;;
12024;SDS011;6073;53.230;10.444;2023-04-09T01:10:00;22.60;;;13.80;;
12024;SDS011;6073;53.230;10.444;2023-04-09T01:12:46;24.30;;;14.10;;
12024;SDS011;6073;53.230;10.444;2023-04-09T01:15:20;25.10;;;14.93;;
12024;SDS011;6073;53.230;10.444;2023-04-09T01:17:51;22.30;;;14.00;;
12024;SDS011;6073;53.230;10.444;2023-04-09T01:20:31;21.58;;;14.20;;
12024;SDS011;6073;53.230;10.444;2023-04-09T01:23:10;22.23;;;13.63;;
12024;SDS011;6073;53.230;10.444;2023-04-09T01:25:42;23.50;;;14.07;;
12024;SDS011;6073;53.230;10.444;2023-04-09T01:28:26;21.83;;;14.57;;
12024;SDS011;6073;53.230;10.444;2023-04-09T01:31:06;22.10;;;14.20;;
12024;SDS011;6073;53.230;10.444;2023-04-09T01:33:37;22.95;;;14.30;;
12024;SDS011;6073;53.230;10.444;2023-04-09T01:36:05;22.92;;;14.73;;
12024;SDS011;6073;53.230;10.444;2023-04-09T01:38:31;21.15;;;13.00;;
12024;SDS011;6073;53.230;10.444;2023-04-09T01:40:59;24.77;;;14.73;;
12024;SDS011;6073;53.230;10.444;2023-04-09T01:43:26;23.65;;;14.23;;
12024;SDS011;6073;53.230;10.444;2023-04-09T01:45:52;24.33;;;15.02;;
12024;SDS011;6073;53.230;10.444;2023-04-09T01:48:19;22.55;;;13.93;;
12024;SDS011;6073;53.230;10.444;2023-04-09T01:50:45;22.70;;;14.27;;
12024;SDS011;6073;53.230;10.444;2023-04-09T01:53:11;23.30;;;14.73;;
12024;SDS011;6073;53.230;10.444;2023-04-09T01:55:37;23.90;;;14.93;;
12024;SDS011;6073;53.230;10.444;2023-04-09T01:58:02;24.20;;;15.73;;
12024;SDS011;6073;53.230;10.444;2023-04-09T02:00:30;28.02;;;18.33;;
12024;SDS011;6073;53.230;10.444;2023-04-09T02:03:07;32.80;;;19.00;;
12024;SDS011;6073;53.230;10.444;2023-04-09T02:05:49;34.92;;;20.73;;
12024;SDS011;6073;53.230;10.444;2023-04-09T02:08:20;32.03;;;18.63;;
12024;SDS011;6073;53.230;10.444;2023-04-09T02:10:48;33.33;;;19.83;;
12024;SDS011;6073;53.230;10.444;2023-04-09T02:13:19;37.53;;;21.27;;
12024;SDS011;6073;53.230;10.444;2023-04-09T02:15:45;37.05;;;20.85;;
12024;SDS011;6073;53.230;10.444;2023-04-09T02:18:22;33.50;;;20.00;;
12024;SDS011;6073;53.230;10.444;2023-04-09T02:20:52;34.38;;;21.33;;
12024;SDS011;6073;53.230;10.444;2023-04-09T02:23:19;34.95;;;21.08;;
12024;SDS011;6073;53.230;10.444;2023-04-09T02:25:45;34.35;;;20.73;;
12024;SDS011;6073;53.230;10.444;2023-04-09T02:28:10;36.08;;;19.92;;
12024;SDS011;6073;53.230;10.444;2023-04-09T02:30:36;38.15;;;21.65;;
12024;SDS011;6073;53.230;10.444;2023-04-09T02:33:01;41.75;;;22.00;;
12024;SDS011;6073;53.230;10.444;2023-04-09T02:35:27;35.35;;;21.70;;
12024;SDS011;6073;53.230;10.444;2023-04-09T02:37:53;38.63;;;21.77;;
12024;SDS011;6073;53.230;10.444;2023-04-09T02:40:18;47.72;;;25.00;;
12024;SDS011;6073;53.230;10.444;2023-04-09T02:42:44;44.28;;;24.63;;
12024;SDS011;6073;53.230;10.444;2023-04-09T02:45:09;57.05;;;28.77;;
12024;SDS011;6073;53.230;10.444;2023-04-09T02:47:35;52.38;;;29.15;;
12024;SDS011;6073;53.230;10.444;2023-04-09T02:50:00;54.25;;;27.33;;
12024;SDS011;6073;53.230;10.444;2023-04-09T02:52:26;47.75;;;25.77;;
12024;SDS011;6073;53.230;10.444;2023-04-09T02:54:52;48.58;;;25.48;;
12024;SDS011;6073;53.230;10.444;2023-04-09T02:57:17;47.75;;;27.00;;
12024;SDS011;6073;53.230;10.444;2023-04-09T02:59:43;53.53;;;28.00;;
12024;SDS011;6073;53.230;10.444;2023-04-09T03:02:09;49.28;;;26.38;;
12024;SDS011;6073;53.230;10.444;2023-04-09T03:04:35;48.60;;;27.83;;
12024;SDS011;6073;53.230;10.444;2023-04-09T03:07:00;54.13;;;26.42;;
12024;SDS011;6073;53.230;10.444;2023-04-09T03:09:26;57.67;;;28.02;;
12024;SDS011;6073;53.230;10.444;2023-04-09T03:11:51;52.65;;;27.73;;
12024;SDS011;6073;53.230;10.444;2023-04-09T03:14:17;54.75;;;28.20;;
12024;SDS011;6073;53.230;10.444;2023-04-09T03:16:42;49.17;;;26.50;;
12024;SDS011;6073;53.230;10.444;2023-04-09T03:19:08;55.78;;;27.10;;
12024;SDS011;6073;53.230;10.444;2023-04-09T03:21:33;48.03;;;26.90;;
12024;SDS011;6073;53.230;10.444;2023-04-09T03:23:59;45.55;;;25.50;;
12024;SDS011;6073;53.230;10.444;2023-04-09T03:26:26;53.85;;;26.00;;
12024;SDS011;6073;53.230;10.444;2023-04-09T03:28:51;48.67;;;24.95;;
12024;SDS011;6073;53.230;10.444;2023-04-09T03:31:17;50.97;;;26.08;;
12024;SDS011;6073;53.230;10.444;2023-04-09T03:33:42;53.92;;;27.27;;
12024;SDS011;6073;53.230;10.444;2023-04-09T03:36:08;53.88;;;27.88;;
12024;SDS011;6073;53.230;10.444;2023-04-09T03:38:33;50.25;;;27.58;;
12024;SDS011;6073;53.230;10.444;2023-04-09T03:40:59;55.95;;;27.40;;
12024;SDS011;6073;53.230;10.444;2023-04-09T03:43:25;59.45;;;28.35;;
12024;SDS011;6073;53.230;10.444;2023-04-09T03:45:51;56.47;;;28.67;;
12024;SDS011;6073;53.230;10.444;2023-04-09T03:48:16;57.03;;;29.30;;
12024;SDS011;6073;53.230;10.444;2023-04-09T03:50:42;61.22;;;30.63;;
12024;SDS011;6073;53.230;10.444;2023-04-09T03:53:07;55.25;;;29.02;;
12024;SDS011;6073;53.230;10.444;2023-04-09T03:55:33;53.78;;;28.60;;
12024;SDS011;6073;53.230;10.444;2023-04-09T03:57:58;60.45;;;30.50;;
12024;SDS011;6073;53.230;10.444;2023-04-09T04:00:24;64.10;;;31.10;;
12024;SDS011;6073;53.230;10.444;2023-04-09T04:02:50;56.58;;;27.42;;
12024;SDS011;6073;53.230;10.444;2023-04-09T04:05:16;57.92;;;28.65;;
12024;SDS011;6073;53.230;10.444;2023-04-09T04:07:42;57.70;;;28.30;;
12024;SDS011;6073;53.230;10.444;2023-04-09T04:10:08;63.00;;;30.35;;
12024;SDS011;6073;53.230;10.444;2023-04-09T04:12:34;59.08;;;29.83;;
12024;SDS011;6073;53.230;10.444;2023-04-09T04:15:00;50.08;;;27.80;;
12024;SDS011;6073;53.230;10.444;2023-04-09T04:17:26;63.03;;;29.65;;
12024;SDS011;6073;53.230;10.444;2023-04-09T04:19:51;56.45;;;27.77;;
12024;SDS011;6073;53.230;10.444;2023-04-09T04:22:17;55.85;;;29.17;;
12024;SDS011;6073;53.230;10.444;2023-04-09T04:24:42;52.90;;;27.13;;
12024;SDS011;6073;53.230;10.444;2023-04-09T04:27:08;54.72;;;29.23;;
12024;SDS011;6073;53.230;10.444;2023-04-09T04:29:33;58.53;;;29.63;;
12024;SDS011;6073;53.230;10.444;2023-04-09T04:31:59;55.88;;;27.67;;
12024;SDS011;6073;53.230;10.444;2023-04-09T04:34:25;55.60;;;28.02;;
12024;SDS011;6073;53.230;10.444;2023-04-09T04:36:50;55.17;;;28.42;;
12024;SDS011;6073;53.230;10.444;2023-04-09T04:39:16;64.20;;;29.10;;
12024;SDS011;6073;53.230;10.444;2023-04-09T04:41:41;61.10;;;29.90;;
12024;SDS011;6073;53.230;10.444;2023-04-09T04:44:07;59.53;;;28.48;;
12024;SDS011;6073;53.230;10.444;2023-04-09T04:46:32;61.97;;;30.92;;
12024;SDS011;6073;53.230;10.444;2023-04-09T04:48:58;56.67;;;29.88;;
12024;SDS011;6073;53.230;10.444;2023-04-09T04:51:23;56.40;;;26.58;;
12024;SDS011;6073;53.230;10.444;2023-04-09T04:53:51;49.00;;;25.50;;
12024;SDS011;6073;53.230;10.444;2023-04-09T04:56:16;54.25;;;27.90;;
12024;SDS011;6073;53.230;10.444;2023-04-09T04:58:42;55.58;;;28.67;;
12024;SDS011;6073;53.230;10.444;2023-04-09T05:01:07;50.65;;;26.65;;
12024;SDS011;6073;53.230;10.444;2023-04-09T05:03:33;53.28;;;28.13;;
12024;SDS011;6073;53.230;10.444;2023-04-09T05:05:59;54.75;;;28.60;;
12024;SDS011;6073;53.230;10.444;2023-04-09T05:08:24;52.33;;;27.48;;
12024;SDS011;6073;53.230;10.444;2023-04-09T05:10:50;51.90;;;26.92;;
12024;SDS011;6073;53.230;10.444;2023-04-09T05:13:15;63.70;;;30.70;;
12024;SDS011;6073;53.230;10.444;2023-04-09T05:15:41;53.88;;;26.75;;
12024;SDS011;6073;53.230;10.444;2023-04-09T05:18:06;52.50;;;28.30;;
12024;SDS011;6073;53.230;10.444;2023-04-09T05:20:32;61.63;;;29.70;;
12024;SDS011;6073;53.230;10.444;2023-04-09T05:22:58;52.22;;;26.05;;
12024;SDS011;6073;53.230;10.444;2023-04-09T05:25:24;50.30;;;26.70;;
12024;SDS011;6073;53.230;10.444;2023-04-09T05:27:49;55.90;;;28.13;;
12024;SDS011;6073;53.230;10.444;2023-04-09T05:30:15;52.47;;;27.20;;
12024;SDS011;6073;53.230;10.444;2023-04-09T05:32:41;53.28;;;27.90;;
12024;SDS011;6073;53.230;10.444;2023-04-09T05:35:06;50.83;;;27.30;;
12024;SDS011;6073;53.230;10.444;2023-04-09T05:37:32;44.70;;;26.42;;
12024;SDS011;6073;53.230;10.444;2023-04-09T05:39:58;48.90;;;26.50;;
12024;SDS011;6073;53.230;10.444;2023-04-09T05:42:23;47.50;;;26.17;;
12024;SDS011;6073;53.230;10.444;2023-04-09T05:44:49;45.45;;;24.65;;
12024;SDS011;6073;53.230;10.444;2023-04-09T05:47:14;48.35;;;25.38;;
12024;SDS011;6073;53.230;10.444;2023-04-09T05:49:40;41.47;;;23.75;;
12024;SDS011;6073;53.230;10.444;2023-04-09T05:52:05;46.40;;;25.05;;
12024;SDS011;6073;53.230;10.444;2023-04-09T05:54:31;44.50;;;24.77;;
12024;SDS011;6073;53.230;10.444;2023-04-09T05:56:56;47.10;;;27.15;;
12024;SDS011;6073;53.230;10.444;2023-04-09T05:59:22;45.25;;;26.30;;
12024;SDS011;6073;53.230;10.444;2023-04-09T06:01:48;44.90;;;24.45;;
12024;SDS011;6073;53.230;10.444;2023-04-09T06:04:13;42.47;;;23.50;;
12024;SDS011;6073;53.230;10.444;2023-04-09T06:06:39;41.92;;;23.77;;
12024;SDS011;6073;53.230;10.444;2023-04-09T06:09:04;42.95;;;24.92;;
12024;SDS011;6073;53.230;10.444;2023-04-09T06:11:30;40.78;;;23.95;;
12024;SDS011;6073;53.230;10.444;2023-04-09T06:13:57;49.72;;;25.30;;
12024;SDS011;6073;53.230;10.444;2023-04-09T06:16:22;44.15;;;25.10;;
12024;SDS011;6073;53.230;10.444;2023-04-09T06:18:48;42.78;;;25.05;;
12024;SDS011;6073;53.230;10.444;2023-04-09T06:21:14;43.90;;;24.90;;
12024;SDS011;6073;53.230;10.444;2023-04-09T06:23:40;42.83;;;25.58;;
12024;SDS011;6073;53.230;10.444;2023-04-09T06:26:07;42.85;;;24.73;;
12024;SDS011;6073;53.230;10.444;2023-04-09T06:28:32;39.17;;;23.67;;
12024;SDS011;6073;53.230;10.444;2023-04-09T06:30:58;43.65;;;24.52;;
12024;SDS011;6073;53.230;10.444;2023-04-09T06:33:23;43.45;;;24.10;;
12024;SDS011;6073;53.230;10.444;2023-04-09T06:35:49;44.38;;;24.92;;
12024;SDS011;6073;53.230;10.444;2023-04-09T06:38:15;45.20;;;24.30;;
12024;SDS011;6073;53.230;10.444;2023-04-09T06:40:41;42.38;;;24.38;;
12024;SDS011;6073;53.230;10.444;2023-04-09T06:43:06;37.30;;;23.85;;
12024;SDS011;6073;53.230;10.444;2023-04-09T06:45:33;44.60;;;24.70;;
12024;SDS011;6073;53.230;10.444;2023-04-09T06:47:59;43.88;;;25.48;;
12024;SDS011;6073;53.230;10.444;2023-04-09T06:50:25;38.85;;;25.30;;
12024;SDS011;6073;53.230;10.444;2023-04-09T06:52:51;42.92;;;24.10;;
12024;SDS011;6073;53.230;10.444;2023-04-09T06:55:17;40.90;;;24.48;;
12024;SDS011;6073;53.230;10.444;2023-04-09T06:57:43;40.22;;;23.63;;
12024;SDS011;6073;53.230;10.444;2023-04-09T07:00:08;40.72;;;25.60;;
12024;SDS011;6073;53.230;10.444;2023-04-09T07:02:35;41.55;;;23.63;;
12024;SDS011;6073;53.230;10.444;2023-04-09T07:05:01;41.25;;;24.88;;
12024;SDS011;6073;53.230;10.444;2023-04-09T07:07:28;43.03;;;25.40;;
12024;SDS011;6073;53.230;10.444;2023-04-09T07:09:53;43.15;;;25.20;;
12024;SDS011;6073;53.230;10.444;2023-04-09T07:12:26;45.13;;;26.65;;
12024;SDS011;6073;53.230;10.444;2023-04-09T07:14:56;40.35;;;25.23;;
12024;SDS011;6073;53.230;10.444;2023-04-09T07:17:26;44.00;;;26.05;;
12024;SDS011;6073;53.230;10.444;2023-04-09T07:19:51;40.33;;;24.23;;
12024;SDS011;6073;53.230;10.444;2023-04-09T07:22:18;44.63;;;24.73;;
12024;SDS011;6073;53.230;10.444;2023-04-09T07:24:47;38.53;;;25.05;;
12024;SDS011;6073;53.230;10.444;2023-04-09T07:27:23;41.30;;;24.98;;
12024;SDS011;6073;53.230;10.444;2023-04-09T07:29:49;38.95;;;24.33;;
12024;SDS011;6073;53.230;10.444;2023-04-09T07:32:15;42.10;;;24.05;;
12024;SDS011;6073;53.230;10.444;2023-04-09T07:34:44;38.20;;;24.33;;
12024;SDS011;6073;53.230;10.444;2023-04-09T07:37:09;39.90;;;24.63;;
12024;SDS011;6073;53.230;10.444;2023-04-09T07:39:36;33.78;;;23.50;;
12024;SDS011;6073;53.230;10.444;2023-04-09T07:42:02;37.25;;;23.35;;
12024;SDS011;6073;53.230;10.444;2023-04-09T07:44:28;35.45;;;23.30;;
12024;SDS011;6073;53.230;10.444;2023-04-09T07:46:57;39.55;;;23.42;;
12024;SDS011;6073;53.230;10.444;2023-04-09T07:49:23;36.15;;;22.80;;
12024;SDS011;6073;53.230;10.444;2023-04-09T07:51:48;35.70;;;22.05;;
12024;SDS011;6073;53.230;10.444;2023-04-09T07:54:14;33.67;;;22.63;;
12024;SDS011;6073;53.230;10.444;2023-04-09T07:56:40;30.95;;;20.63;;
12024;SDS011;6073;53.230;10.444;2023-04-09T07:59:06;29.60;;;21.15;;
12024;SDS011;6073;53.230;10.444;2023-04-09T08:01:31;27.38;;;19.58;;
12024;SDS011;6073;53.230;10.444;2023-04-09T08:03:57;26.27;;;18.63;;
12024;SDS011;6073;53.230;10.444;2023-04-09T08:06:22;28.17;;;17.98;;
12024;SDS011;6073;53.230;10.444;2023-04-09T08:08:48;26.15;;;18.13;;
12024;SDS011;6073;53.230;10.444;2023-04-09T08:11:13;28.58;;;19.50;;
12024;SDS011;6073;53.230;10.444;2023-04-09T08:13:39;27.48;;;17.73;;
12024;SDS011;6073;53.230;10.444;2023-04-09T08:16:05;29.67;;;19.45;;
12024;SDS011;6073;53.230;10.444;2023-04-09T08:18:30;25.27;;;18.67;;
12024;SDS011;6073;53.230;10.444;2023-04-09T08:20:56;28.17;;;18.33;;
12024;SDS011;6073;53.230;10.444;2023-04-09T08:23:21;26.65;;;19.33;;
12024;SDS011;6073;53.230;10.444;2023-04-09T08:25:47;25.70;;;17.75;;
12024;SDS011;6073;53.230;10.444;2023-04-09T08:28:12;29.20;;;19.27;;
12024;SDS011;6073;53.230;10.444;2023-04-09T08:30:38;29.05;;;18.67;;
12024;SDS011;6073;53.230;10.444;2023-04-09T08:33:03;30.65;;;18.30;;
12024;SDS011;6073;53.230;10.444;2023-04-09T08:35:29;29.65;;;20.15;;
12024;SDS011;6073;53.230;10.444;2023-04-09T08:37:55;26.02;;;18.33;;
12024;SDS011;6073;53.230;10.444;2023-04-09T08:40:21;26.50;;;18.70;;
12024;SDS011;6073;53.230;10.444;2023-04-09T08:42:48;26.48;;;18.98;;
12024;SDS011;6073;53.230;10.444;2023-04-09T08:45:18;24.08;;;16.90;;
12024;SDS011;6073;53.230;10.444;2023-04-09T08:47:44;25.35;;;17.70;;
12024;SDS011;6073;53.230;10.444;2023-04-09T08:50:13;26.00;;;18.42;;
12024;SDS011;6073;53.230;10.444;2023-04-09T08:52:38;27.33;;;19.30;;
12024;SDS011;6073;53.230;10.444;2023-04-09T08:55:05;25.27;;;17.58;;
12024;SDS011;6073;53.230;10.444;2023-04-09T08:57:35;26.88;;;18.60;;
12024;SDS011;6073;53.230;10.444;2023-04-09T09:00:06;25.90;;;17.55;;
12024;SDS011;6073;53.230;10.444;2023-04-09T09:02:33;27.15;;;18.55;;
12024;SDS011;6073;53.230;10.444;2023-04-09T09:04:59;23.40;;;17.33;;
12024;SDS011;6073;53.230;10.444;2023-04-09T09:07:26;27.58;;;17.30;;
12024;SDS011;6073;53.230;10.444;2023-04-09T09:09:57;23.25;;;16.58;;
12024;SDS011;6073;53.230;10.444;2023-04-09T09:14:57;23.70;;;17.42;;
12024;SDS011;6073;53.230;10.444;2023-04-09T09:17:23;25.40;;;17.20;;
12024;SDS011;6073;53.230;10.444;2023-04-09T09:19:49;24.90;;;17.10;;
12024;SDS011;6073;53.230;10.444;2023-04-09T09:22:15;25.15;;;17.20;;
12024;SDS011;6073;53.230;10.444;2023-04-09T09:24:50;25.30;;;17.15;;
12024;SDS011;6073;53.230;10.444;2023-04-09T09:27:29;22.63;;;16.30;;
12024;SDS011;6073;53.230;10.444;2023-04-09T09:30:00;23.33;;;16.08;;
12024;SDS011;6073;53.230;10.444;2023-04-09T09:32:28;24.90;;;17.13;;
12024;SDS011;6073;53.230;10.444;2023-04-09T09:34:57;23.17;;;16.23;;
12024;SDS011;6073;53.230;10.444;2023-04-09T09:37:27;24.90;;;17.38;;
12024;SDS011;6073;53.230;10.444;2023-04-09T09:39:54;22.48;;;16.67;;
12024;SDS011;6073;53.230;10.444;2023-04-09T09:42:20;20.52;;;15.70;;
12024;SDS011;6073;53.230;10.444;2023-04-09T09:44:45;22.92;;;16.52;;
12024;SDS011;6073;53.230;10.444;2023-04-09T09:47:11;23.85;;;16.83;;
12024;SDS011;6073;53.230;10.444;2023-04-09T09:49:38;23.95;;;17.00;;
12024;SDS011;6073;53.230;10.444;2023-04-09T09:52:05;22.60;;;15.98;;
12024;SDS011;6073;53.230;10.444;2023-04-09T09:54:44;21.60;;;16.42;;
12024;SDS011;6073;53.230;10.444;2023-04-09T09:57:13;22.75;;;16.50;;
12024;SDS011;6073;53.230;10.444;2023-04-09T09:59:46;22.55;;;17.02;;
12024;SDS011;6073;53.230;10.444;2023-04-09T10:02:25;22.58;;;16.73;;
12024;SDS011;6073;53.230;10.444;2023-04-09T10:04:55;23.92;;;17.50;;
12024;SDS011;6073;53.230;10.444;2023-04-09T10:07:24;21.77;;;16.48;;
12024;SDS011;6073;53.230;10.444;2023-04-09T10:09:51;22.63;;;16.10;;
12024;SDS011;6073;53.230;10.444;2023-04-09T10:12:19;22.25;;;15.45;;
12024;SDS011;6073;53.230;10.444;2023-04-09T10:14:47;21.85;;;17.27;;
12024;SDS011;6073;53.230;10.444;2023-04-09T10:17:14;21.88;;;16.02;;
12024;SDS011;6073;53.230;10.444;2023-04-09T10:19:42;21.40;;;16.60;;
12024;SDS011;6073;53.230;10.444;2023-04-09T10:22:12;20.10;;;15.68;;
12024;SDS011;6073;53.230;10.444;2023-04-09T10:24:42;20.80;;;16.52;;
12024;SDS011;6073;53.230;10.444;2023-04-09T10:27:11;21.52;;;16.20;;
12024;SDS011;6073;53.230;10.444;2023-04-09T10:29:46;22.20;;;15.50;;
12024;SDS011;6073;53.230;10.444;2023-04-09T10:32:17;21.63;;;16.55;;
12024;SDS011;6073;53.230;10.444;2023-04-09T10:34:45;21.52;;;16.27;;
12024;SDS011;6073;53.230;10.444;2023-04-09T10:37:14;21.35;;;16.65;;
12024;SDS011;6073;53.230;10.444;2023-04-09T10:39:46;19.77;;;15.90;;
12024;SDS011;6073;53.230;10.444;2023-04-09T10:44:46;19.98;;;15.43;;
12024;SDS011;6073;53.230;10.444;2023-04-09T10:47:32;19.48;;;15.15;;
12024;SDS011;6073;53.230;10.444;2023-04-09T10:50:16;19.67;;;15.05;;
12024;SDS011;6073;53.230;10.444;2023-04-09T10:52:43;19.35;;;15.07;;
12024;SDS011;6073;53.230;10.444;2023-04-09T10:55:27;21.55;;;15.65;;
12024;SDS011;6073;53.230;10.444;2023-04-09T10:58:02;20.90;;;15.15;;
12024;SDS011;6073;53.230;10.444;2023-04-09T11:00:32;20.65;;;14.70;;
12024;SDS011;6073;53.230;10.444;2023-04-09T11:10:36;18.63;;;14.55;;
12024;SDS011;6073;53.230;10.444;2023-04-09T11:13:03;19.50;;;14.65;;
12024;SDS011;6073;53.230;10.444;2023-04-09T11:15:30;18.98;;;14.57;;
12024;SDS011;6073;53.230;10.444;2023-04-09T11:17:56;20.05;;;14.82;;
12024;SDS011;6073;53.230;10.444;2023-04-09T11:20:22;18.58;;;15.07;;
12024;SDS011;6073;53.230;10.444;2023-04-09T11:22:50;17.23;;;14.30;;
12024;SDS011;6073;53.230;10.444;2023-04-09T11:25:20;18.40;;;14.80;;
12024;SDS011;6073;53.230;10.444;2023-04-09T11:27:47;18.27;;;14.07;;
12024;SDS011;6073;53.230;10.444;2023-04-09T11:30:13;19.10;;;13.93;;
12024;SDS011;6073;53.230;10.444;2023-04-09T11:32:39;18.98;;;15.15;;
12024;SDS011;6073;53.230;10.444;2023-04-09T11:35:09;17.40;;;13.93;;
12024;SDS011;6073;53.230;10.444;2023-04-09T11:37:42;18.67;;;14.35;;
12024;SDS011;6073;53.230;10.444;2023-04-09T11:40:24;18.58;;;14.40;;
12024;SDS011;6073;53.230;10.444;2023-04-09T11:42:51;18.25;;;14.55;;
12024;SDS011;6073;53.230;10.444;2023-04-09T11:45:18;17.50;;;14.10;;
12024;SDS011;6073;53.230;10.444;2023-04-09T11:47:48;18.10;;;14.05;;
12024;SDS011;6073;53.230;10.444;2023-04-09T11:50:14;18.90;;;13.93;;
12024;SDS011;6073;53.230;10.444;2023-04-09T11:52:40;17.33;;;13.90;;
12024;SDS011;6073;53.230;10.444;2023-04-09T11:55:09;15.75;;;13.43;;
12024;SDS011;6073;53.230;10.444;2023-04-09T11:57:40;17.35;;;13.13;;
12024;SDS011;6073;53.230;10.444;2023-04-09T12:00:15;17.88;;;14.65;;
12024;SDS011;6073;53.230;10.444;2023-04-09T12:02:43;18.05;;;14.07;;
12024;SDS011;6073;53.230;10.444;2023-04-09T12:05:22;17.55;;;13.70;;
12024;SDS011;6073;53.230;10.444;2023-04-09T12:07:49;15.02;;;13.43;;
12024;SDS011;6073;53.230;10.444;2023-04-09T12:10:15;17.58;;;13.35;;
12024;SDS011;6073;53.230;10.444;2023-04-09T12:12:41;17.58;;;13.57;;
12024;SDS011;6073;53.230;10.444;2023-04-09T12:15:11;15.48;;;12.65;;
12024;SDS011;6073;53.230;10.444;2023-04-09T12:17:54;16.33;;;13.02;;
12024;SDS011;6073;53.230;10.444;2023-04-09T12:20:27;17.10;;;13.80;;
12024;SDS011;6073;53.230;10.444;2023-04-09T12:23:02;16.58;;;13.27;;
12024;SDS011;6073;53.230;10.444;2023-04-09T12:25:29;17.38;;;12.75;;
12024;SDS011;6073;53.230;10.444;2023-04-09T12:27:59;15.60;;;12.93;;
12024;SDS011;6073;53.230;10.444;2023-04-09T12:30:25;15.80;;;12.52;;
12024;SDS011;6073;53.230;10.444;2023-04-09T12:32:52;16.17;;;12.50;;
12024;SDS011;6073;53.230;10.444;2023-04-09T12:35:17;15.95;;;13.00;;
12024;SDS011;6073;53.230;10.444;2023-04-09T12:37:43;15.75;;;12.75;;
12024;SDS011;6073;53.230;10.444;2023-04-09T12:40:09;15.60;;;12.52;;
12024;SDS011;6073;53.230;10.444;2023-04-09T12:42:38;15.75;;;13.05;;
12024;SDS011;6073;53.230;10.444;2023-04-09T12:45:05;14.55;;;12.95;;
12024;SDS011;6073;53.230;10.444;2023-04-09T12:47:31;15.35;;;11.80;;
12024;SDS011;6073;53.230;10.444;2023-04-09T12:49:57;15.15;;;12.13;;
12024;SDS011;6073;53.230;10.444;2023-04-09T12:52:22;15.95;;;12.48;;
12024;SDS011;6073;53.230;10.444;2023-04-09T12:54:48;15.00;;;11.93;;
12024;SDS011;6073;53.230;10.444;2023-04-09T12:57:15;14.68;;;12.35;;
12024;SDS011;6073;53.230;10.444;2023-04-09T12:59:41;15.05;;;11.88;;
12024;SDS011;6073;53.230;10.444;2023-04-09T13:02:06;16.17;;;12.95;;
12024;SDS011;6073;53.230;10.444;2023-04-09T13:04:32;16.25;;;12.52;;
12024;SDS011;6073;53.230;10.444;2023-04-09T13:06:58;16.10;;;12.35;;
12024;SDS011;6073;53.230;10.444;2023-04-09T13:09:23;17.27;;;12.63;;
12024;SDS011;6073;53.230;10.444;2023-04-09T13:11:49;13.48;;;11.23;;
12024;SDS011;6073;53.230;10.444;2023-04-09T13:14:15;14.45;;;11.88;;
12024;SDS011;6073;53.230;10.444;2023-04-09T13:16:41;16.80;;;12.35;;
12024;SDS011;6073;53.230;10.444;2023-04-09T13:19:07;14.55;;;11.65;;
12024;SDS011;6073;53.230;10.444;2023-04-09T13:21:33;14.48;;;11.77;;
12024;SDS011;6073;53.230;10.444;2023-04-09T13:23:59;14.48;;;11.77;;
12024;SDS011;6073;53.230;10.444;2023-04-09T13:26:25;14.90;;;11.23;;
12024;SDS011;6073;53.230;10.444;2023-04-09T13:28:51;15.18;;;11.25;;
12024;SDS011;6073;53.230;10.444;2023-04-09T13:31:17;14.10;;;10.82;;
12024;SDS011;6073;53.230;10.444;2023-04-09T13:33:43;12.10;;;9.98;;
12024;SDS011;6073;53.230;10.444;2023-04-09T13:36:08;10.77;;;9.68;;
12024;SDS011;6073;53.230;10.444;2023-04-09T13:38:34;11.40;;;9.35;;
12024;SDS011;6073;53.230;10.444;2023-04-09T13:41:00;10.35;;;8.95;;
12024;SDS011;6073;53.230;10.444;2023-04-09T13:43:25;12.73;;;10.00;;
12024;SDS011;6073;53.230;10.444;2023-04-09T13:45:53;12.00;;;10.15;;
12024;SDS011;6073;53.230;10.444;2023-04-09T13:48:19;11.65;;;9.48;;
12024;SDS011;6073;53.230;10.444;2023-04-09T13:50:45;10.55;;;8.60;;
12024;SDS011;6073;53.230;10.444;2023-04-09T13:53:11;10.73;;;8.77;;
12024;SDS011;6073;53.230;10.444;2023-04-09T13:55:37;12.43;;;10.38;;
12024;SDS011;6073;53.230;10.444;2023-04-09T13:58:03;11.57;;;9.50;;
12024;SDS011;6073;53.230;10.444;2023-04-09T14:00:29;11.60;;;9.77;;
12024;SDS011;6073;53.230;10.444;2023-04-09T14:02:55;11.82;;;9.20;;
12024;SDS011;6073;53.230;10.444;2023-04-09T14:05:21;10.77;;;8.45;;
12024;SDS011;6073;53.230;10.444;2023-04-09T14:07:47;10.70;;;9.13;;
12024;SDS011;6073;53.230;10.444;2023-04-09T14:10:12;12.00;;;9.90;;
12024;SDS011;6073;53.230;10.444;2023-04-09T14:12:38;14.57;;;10.60;;
12024;SDS011;6073;53.230;10.444;2023-04-09T14:15:04;12.52;;;9.52;;
12024;SDS011;6073;53.230;10.444;2023-04-09T14:17:30;11.15;;;9.63;;
12024;SDS011;6073;53.230;10.444;2023-04-09T14:19:55;13.82;;;10.70;;
12024;SDS011;6073;53.230;10.444;2023-04-09T14:22:23;13.68;;;10.45;;
12024;SDS011;6073;53.230;10.444;2023-04-09T14:24:49;13.77;;;10.35;;
12024;SDS011;6073;53.230;10.444;2023-04-09T14:27:15;11.32;;;8.32;;
12024;SDS011;6073;53.230;10.444;2023-04-09T14:29:40;9.82;;;8.32;;
12024;SDS011;6073;53.230;10.444;2023-04-09T14:32:06;10.13;;;8.52;;
12024;SDS011;6073;53.230;10.444;2023-04-09T14:34:32;11.50;;;9.77;;
12024;SDS011;6073;53.230;10.444;2023-04-09T14:36:58;10.18;;;8.68;;
12024;SDS011;6073;53.230;10.444;2023-04-09T14:39:23;12.52;;;9.85;;